createdAt,value
2018-07-24T00:02:04.764Z,7.03
2018-07-24T00:04:45.338Z,7.80
2018-07-24T00:07:26.138Z,6.73
2018-07-24T00:10:07.056Z,9.03
2018-07-24T00:12:47.913Z,5.90
2018-07-24T00:15:29.692Z,11.53
2018-07-24T00:18:10.479Z,10.57
2018-07-24T00:20:51.220Z,10.43
2018-07-24T00:23:32.254Z,13.83
2018-07-24T00:26:13.468Z,12.37
2018-07-24T00:28:54.279Z,8.53
2018-07-24T00:31:36.352Z,9.33
2018-07-24T00:34:16.722Z,8.17
2018-07-24T00:36:58.144Z,7.07
2018-07-24T00:39:39.015Z,15.13
2018-07-24T00:42:19.676Z,10.90
2018-07-24T00:45:00.629Z,7.07
2018-07-24T00:47:41.187Z,7.33
2018-07-24T00:50:22.071Z,7.27
2018-07-24T00:53:02.807Z,7.00
2018-07-24T00:55:44.329Z,7.33
2018-07-24T00:58:25.225Z,7.93
2018-07-24T01:01:06.139Z,6.90
2018-07-24T01:03:48.207Z,8.13
2018-07-24T01:06:29.491Z,8.47
2018-07-24T01:09:11.129Z,11.03
2018-07-24T01:11:51.633Z,8.47
2018-07-24T01:14:32.364Z,10.43
2018-07-24T01:17:12.943Z,14.43
2018-07-24T01:19:53.373Z,16.03
2018-07-24T01:22:34.185Z,11.07
2018-07-24T01:25:14.965Z,16.93
2018-07-24T01:27:56.152Z,13.83
2018-07-24T01:30:36.983Z,7.53
2018-07-24T01:33:18.097Z,8.30
2018-07-24T01:35:58.503Z,7.23
2018-07-24T01:38:38.870Z,8.57
2018-07-24T01:41:19.701Z,8.00
2018-07-24T01:44:00.554Z,8.63
2018-07-24T01:46:41.041Z,7.70
2018-07-24T01:49:21.393Z,6.93
2018-07-24T01:52:02.216Z,6.93
2018-07-24T01:54:43.152Z,6.53
2018-07-24T01:57:24.367Z,9.83
2018-07-24T02:00:05.436Z,6.80
2018-07-24T02:02:45.867Z,8.57
2018-07-24T02:05:26.746Z,7.20
2018-07-24T02:08:07.239Z,7.00
2018-07-24T02:10:48.256Z,7.43
2018-07-24T02:13:29.156Z,6.30
2018-07-24T02:16:09.712Z,6.90
2018-07-24T02:18:50.642Z,8.27
2018-07-24T02:21:30.958Z,8.07
2018-07-24T02:24:11.829Z,6.30
2018-07-24T02:26:52.702Z,7.30
2018-07-24T02:29:33.561Z,6.83
2018-07-24T02:32:14.177Z,10.77
2018-07-24T02:34:55.179Z,7.33
2018-07-24T02:37:36.163Z,6.93
2018-07-24T02:40:16.742Z,8.93
2018-07-24T02:42:57.613Z,7.37
2018-07-24T02:45:38.810Z,7.43
2018-07-24T02:48:19.145Z,7.43
2018-07-24T02:51:00.590Z,8.17
2018-07-24T02:53:41.399Z,8.40
2018-07-24T02:56:22.508Z,8.50
2018-07-24T02:59:04.266Z,8.23
2018-07-24T03:01:45.310Z,8.43
2018-07-24T03:04:26.523Z,9.87
2018-07-24T03:07:07.393Z,7.63
2018-07-24T03:09:48.221Z,7.93
2018-07-24T03:12:28.786Z,8.23
2018-07-24T03:15:09.429Z,8.37
2018-07-24T03:17:50.330Z,8.33
2018-07-24T03:20:31.102Z,7.90
2018-07-24T03:23:11.629Z,11.20
2018-07-24T03:25:52.143Z,10.47
2018-07-24T03:28:33.251Z,8.50
2018-07-24T03:31:14.061Z,8.30
2018-07-24T03:33:54.766Z,8.37
2018-07-24T03:36:35.988Z,9.33
2018-07-24T03:39:16.716Z,7.83
2018-07-24T03:41:57.422Z,9.20
2018-07-24T03:44:38.279Z,8.43
2018-07-24T03:47:19.218Z,8.83
2018-07-24T03:50:00.032Z,8.77
2018-07-24T03:52:40.947Z,7.90
2018-07-24T03:55:21.528Z,8.70
2018-07-24T03:58:02.464Z,8.93
2018-07-24T04:00:43.277Z,8.50
2018-07-24T04:03:23.806Z,10.67
2018-07-24T04:06:04.481Z,11.37
2018-07-24T04:08:45.129Z,11.13
2018-07-24T04:11:25.938Z,10.03
2018-07-24T04:14:06.463Z,14.57
2018-07-24T04:16:46.887Z,12.80
2018-07-24T04:19:28.111Z,9.23
2018-07-24T04:22:09.155Z,11.30
2018-07-24T04:24:49.576Z,9.37
2018-07-24T04:27:30.221Z,14.37
2018-07-24T04:30:11.018Z,10.07
2018-07-24T04:32:51.690Z,8.10
2018-07-24T04:35:32.657Z,9.40
2018-07-24T04:38:13.170Z,8.43
2018-07-24T04:40:53.749Z,10.03
2018-07-24T04:43:34.035Z,9.83
2018-07-24T04:46:14.801Z,9.60
2018-07-24T04:48:55.545Z,10.53
2018-07-24T04:51:36.791Z,9.27
2018-07-24T04:54:17.665Z,11.53
2018-07-24T04:56:59.022Z,11.20
2018-07-24T04:59:40.081Z,9.80
2018-07-24T05:02:20.852Z,10.07
2018-07-24T05:05:01.549Z,10.30
2018-07-24T05:07:42.328Z,9.90
2018-07-24T05:10:23.618Z,9.70
2018-07-24T05:13:05.295Z,9.47
2018-07-24T05:15:47.047Z,9.70
2018-07-24T05:18:28.106Z,9.23
2018-07-24T05:21:09.034Z,12.87
2018-07-24T05:23:50.296Z,12.80
2018-07-24T05:26:31.795Z,10.63
2018-07-24T05:29:12.487Z,10.07
2018-07-24T05:31:53.233Z,9.03
2018-07-24T05:34:33.995Z,9.67
2018-07-24T05:37:14.806Z,12.80
2018-07-24T05:39:55.973Z,11.30
2018-07-24T05:42:36.878Z,12.37
2018-07-24T05:45:18.014Z,11.57
2018-07-24T05:47:58.503Z,12.73
2018-07-24T05:50:39.599Z,8.60
2018-07-24T05:53:20.666Z,9.00
2018-07-24T05:56:01.589Z,15.83
2018-07-24T05:58:42.370Z,8.63
2018-07-24T06:01:23.629Z,15.10
2018-07-24T06:04:04.229Z,12.17
2018-07-24T06:06:45.482Z,12.90
2018-07-24T06:09:25.775Z,16.27
2018-07-24T06:12:08.047Z,14.33
2018-07-24T06:14:49.055Z,15.37
2018-07-24T06:17:29.345Z,18.40
2018-07-24T06:20:10.848Z,16.17
2018-07-24T06:22:51.383Z,12.60
2018-07-24T06:25:32.497Z,16.77
2018-07-24T06:28:13.062Z,15.87
2018-07-24T06:30:53.945Z,11.97
2018-07-24T06:33:34.670Z,12.53
2018-07-24T06:36:15.993Z,14.37
2018-07-24T06:38:56.564Z,12.83
2018-07-24T06:41:37.309Z,10.17
2018-07-24T06:44:18.058Z,12.13
2018-07-24T06:46:59.546Z,12.40
2018-07-24T06:49:40.825Z,9.87
2018-07-24T06:52:21.757Z,11.50
2018-07-24T06:55:02.494Z,9.27
2018-07-24T06:57:43.262Z,12.20
2018-07-24T07:00:24.382Z,14.67
2018-07-24T07:03:05.214Z,15.87
2018-07-24T07:05:46.384Z,7.67
2018-07-24T07:08:28.499Z,8.97
2018-07-24T07:11:09.433Z,15.00
2018-07-24T07:13:50.362Z,13.33
2018-07-24T07:16:31.106Z,10.27
2018-07-24T07:19:11.933Z,12.23
2018-07-24T07:21:52.612Z,17.77
2018-07-24T07:24:33.614Z,9.83
2018-07-24T07:27:14.425Z,11.47
2018-07-24T07:29:55.149Z,11.10
2018-07-24T07:32:36.286Z,10.43
2018-07-24T07:35:17.286Z,13.50
2018-07-24T07:37:58.447Z,12.67
2018-07-24T07:40:39.344Z,11.63
2018-07-24T07:43:19.897Z,14.37
2018-07-24T07:46:00.752Z,11.23
2018-07-24T07:48:41.350Z,16.10
2018-07-24T07:51:22.203Z,13.80
2018-07-24T07:54:03.202Z,12.57
2018-07-24T07:56:43.515Z,10.03
2018-07-24T07:59:24.409Z,7.57
2018-07-24T08:02:05.241Z,9.30
2018-07-24T08:04:46.092Z,8.07
2018-07-24T08:07:27.205Z,12.17
2018-07-24T08:10:08.030Z,9.00
2018-07-24T08:12:48.867Z,11.07
2018-07-24T08:15:29.754Z,7.27
2018-07-24T08:18:10.589Z,10.70
2018-07-24T08:20:51.261Z,10.90
2018-07-24T08:23:32.922Z,9.50
2018-07-24T08:26:14.241Z,10.60
2018-07-24T08:28:54.729Z,7.60
2018-07-24T08:31:35.609Z,7.03
2018-07-24T08:34:16.483Z,7.17
2018-07-24T08:36:56.891Z,6.90
2018-07-24T08:39:37.729Z,8.73
2018-07-24T08:42:19.024Z,8.00
2018-07-24T08:45:00.101Z,7.83
2018-07-24T08:47:40.939Z,7.30
2018-07-24T08:53:08.073Z,5.90
2018-07-24T08:55:49.044Z,8.23
2018-07-24T08:58:29.714Z,7.33
2018-07-24T09:01:10.649Z,6.17
2018-07-24T09:03:51.429Z,6.43
2018-07-24T09:06:32.641Z,6.13
2018-07-24T09:09:13.674Z,6.87
2018-07-24T09:11:54.091Z,8.43
2018-07-24T09:14:35.280Z,39.27
2018-07-24T09:17:16.203Z,12.57
2018-07-24T09:19:56.704Z,7.40
2018-07-24T09:22:37.581Z,7.77
2018-07-24T09:25:18.101Z,5.90
2018-07-24T09:27:58.435Z,7.33
2018-07-24T09:30:39.319Z,9.47
2018-07-24T09:33:20.448Z,7.63
2018-07-24T09:36:01.806Z,10.37
2018-07-24T09:38:42.331Z,7.80
2018-07-24T09:41:23.353Z,8.93
2018-07-24T09:44:04.382Z,7.83
2018-07-24T09:46:45.270Z,12.47
2018-07-24T09:49:25.709Z,7.80
2018-07-24T09:52:06.790Z,6.53
2018-07-24T09:54:47.555Z,8.13
2018-07-24T09:57:28.148Z,5.83
2018-07-24T10:00:10.353Z,6.37
2018-07-24T10:02:50.856Z,5.20
2018-07-24T10:05:31.907Z,6.33
2018-07-24T10:08:12.547Z,6.83
2018-07-24T10:10:53.892Z,5.93
2018-07-24T10:13:34.703Z,9.77
2018-07-24T10:16:15.486Z,5.50
2018-07-24T10:18:56.921Z,5.30
2018-07-24T10:21:38.648Z,7.63
2018-07-24T10:24:19.137Z,7.50
2018-07-24T10:27:00.641Z,12.40
2018-07-24T10:29:41.025Z,9.87
2018-07-24T10:32:21.565Z,6.73
2018-07-24T10:35:03.384Z,6.27
2018-07-24T10:37:44.093Z,6.87
2018-07-24T10:40:24.691Z,5.60
2018-07-24T10:43:05.133Z,8.93
2018-07-24T10:45:46.986Z,5.23
2018-07-24T10:48:27.680Z,5.07
2018-07-24T10:51:08.509Z,5.67
2018-07-24T10:53:49.397Z,4.60
2018-07-24T10:56:31.661Z,5.60
2018-07-24T10:59:12.494Z,6.60
2018-07-24T11:01:53.275Z,5.60
2018-07-24T11:04:34.121Z,5.63
2018-07-24T11:07:14.767Z,5.07
2018-07-24T11:09:55.480Z,6.13
2018-07-24T11:12:36.602Z,6.90
2018-07-24T11:15:17.473Z,10.20
2018-07-24T11:17:58.466Z,4.90
2018-07-24T11:20:39.786Z,5.97
2018-07-24T11:23:20.435Z,5.03
2018-07-24T11:26:01.631Z,5.23
2018-07-24T11:28:42.599Z,5.90
2018-07-24T11:31:23.622Z,4.50
2018-07-24T11:34:04.449Z,6.53
2018-07-24T11:36:45.294Z,5.40
2018-07-24T11:39:25.981Z,5.70
2018-07-24T11:42:07.174Z,4.67
2018-07-24T11:44:47.911Z,4.60
2018-07-24T11:47:28.891Z,5.07
2018-07-24T11:50:09.777Z,7.10
2018-07-24T11:52:50.326Z,5.33
2018-07-24T11:55:30.984Z,4.40
2018-07-24T11:58:12.799Z,7.10
2018-07-24T12:00:54.041Z,10.07
2018-07-24T12:03:35.544Z,5.33
2018-07-24T12:06:16.873Z,9.27
2018-07-24T12:08:58.046Z,5.13
2018-07-24T12:11:38.635Z,4.90
2018-07-24T12:14:19.580Z,4.80
2018-07-24T12:17:00.505Z,5.07
2018-07-24T12:19:42.461Z,5.20
2018-07-24T12:22:24.480Z,4.53
2018-07-24T12:25:05.304Z,4.20
2018-07-24T12:27:46.520Z,5.53
2018-07-24T12:30:27.362Z,4.43
2018-07-24T12:33:07.905Z,4.73
2018-07-24T12:35:48.316Z,4.00
2018-07-24T12:38:28.972Z,5.57
2018-07-24T12:41:10.011Z,4.93
2018-07-24T12:43:50.842Z,4.57
2018-07-24T12:46:31.665Z,4.17
2018-07-24T12:49:12.646Z,6.63
2018-07-24T12:51:53.200Z,5.53
2018-07-24T12:54:34.091Z,5.40
2018-07-24T12:57:16.057Z,7.33
2018-07-24T12:59:56.874Z,8.80
2018-07-24T13:02:37.984Z,7.80
2018-07-24T13:05:19.148Z,6.13
2018-07-24T13:08:00.032Z,5.53
2018-07-24T13:10:40.637Z,4.60
2018-07-24T13:13:21.213Z,9.67
2018-07-24T13:16:01.903Z,6.43
2018-07-24T13:18:42.437Z,4.23
2018-07-24T13:21:23.225Z,5.50
2018-07-24T13:24:04.007Z,3.73
2018-07-24T13:26:44.814Z,7.23
2018-07-24T13:29:26.149Z,4.37
2018-07-24T13:32:06.660Z,4.90
2018-07-24T13:34:47.530Z,5.20
2018-07-24T13:37:28.453Z,4.40
2018-07-24T13:40:09.908Z,4.20
2018-07-24T13:42:50.576Z,4.43
2018-07-24T13:45:31.127Z,4.37
2018-07-24T13:48:11.627Z,4.67
2018-07-24T13:50:52.301Z,4.30
2018-07-24T13:53:33.109Z,5.90
2018-07-24T13:56:13.524Z,4.80
2018-07-24T13:58:53.966Z,4.57
2018-07-24T14:01:36.972Z,4.50
2018-07-24T14:04:17.840Z,6.97
2018-07-24T14:06:58.729Z,7.20
2018-07-24T14:09:39.718Z,4.10
2018-07-24T14:12:20.568Z,5.03
2018-07-24T14:15:02.266Z,4.00
2018-07-24T14:17:43.278Z,4.03
2018-07-24T14:20:24.112Z,4.90
2018-07-24T14:23:05.528Z,5.20
2018-07-24T14:25:46.430Z,6.53
2018-07-24T14:28:27.637Z,4.23
2018-07-24T14:31:08.398Z,7.90
2018-07-24T14:33:49.334Z,5.50
2018-07-24T14:36:30.261Z,3.70
2018-07-24T14:39:12.763Z,3.83
2018-07-24T14:41:53.428Z,4.60
2018-07-24T14:44:34.365Z,4.17
2018-07-24T14:47:15.889Z,4.50
2018-07-24T14:49:56.343Z,4.30
2018-07-24T14:52:37.343Z,4.27
2018-07-24T14:55:18.330Z,4.20
2018-07-24T14:57:59.546Z,5.43
2018-07-24T15:00:40.334Z,4.07
2018-07-24T15:03:22.527Z,7.63
2018-07-24T15:06:03.729Z,6.80
2018-07-24T15:08:45.142Z,7.00
2018-07-24T15:11:26.125Z,6.40
2018-07-24T15:14:07.034Z,5.07
2018-07-24T15:16:48.776Z,3.90
2018-07-24T15:19:29.749Z,3.83
2018-07-24T15:22:10.906Z,3.73
2018-07-24T15:24:52.210Z,5.43
2018-07-24T15:27:33.445Z,5.93
2018-07-24T15:30:14.949Z,5.33
2018-07-24T15:32:55.874Z,5.40
2018-07-24T15:35:40.535Z,4.63
2018-07-24T15:38:22.098Z,5.60
2018-07-24T15:41:03.163Z,4.13
2018-07-24T15:43:45.141Z,5.60
2018-07-24T15:46:26.477Z,6.53
2018-07-24T15:49:07.233Z,3.67
2018-07-24T15:51:49.215Z,6.30
2018-07-24T15:54:29.979Z,5.47
2018-07-24T15:57:10.487Z,5.73
2018-07-24T15:59:51.907Z,4.53
2018-07-24T16:02:32.801Z,4.23
2018-07-24T16:05:13.799Z,4.47
2018-07-24T16:07:54.992Z,5.63
2018-07-24T16:10:35.746Z,5.30
2018-07-24T16:13:16.401Z,3.30
2018-07-24T16:15:57.360Z,3.93
2018-07-24T16:18:38.382Z,3.50
2018-07-24T16:21:19.938Z,4.20
2018-07-24T16:24:01.094Z,3.80
2018-07-24T16:26:42.487Z,3.30
2018-07-24T16:29:23.573Z,8.47
2018-07-24T16:32:04.589Z,4.53
2018-07-24T16:34:45.799Z,4.63
2018-07-24T16:37:26.955Z,3.57
2018-07-24T16:40:07.467Z,4.30
2018-07-24T16:42:48.817Z,2.60
2018-07-24T16:45:29.622Z,5.13
2018-07-24T16:48:10.500Z,5.00
2018-07-24T16:50:51.220Z,3.47
2018-07-24T16:53:32.083Z,3.97
2018-07-24T16:56:12.780Z,6.90
2018-07-24T16:58:54.065Z,3.50
2018-07-24T17:01:34.775Z,5.60
2018-07-24T17:04:15.329Z,4.17
2018-07-24T17:06:56.333Z,4.13
2018-07-24T17:09:38.220Z,3.67
2018-07-24T17:12:19.424Z,2.97
2018-07-24T17:15:02.814Z,3.17
2018-07-24T17:17:43.349Z,7.40
2018-07-24T17:20:24.618Z,6.23
2018-07-24T17:23:05.361Z,3.20
2018-07-24T17:25:46.743Z,2.73
2018-07-24T17:28:27.642Z,4.10
2018-07-24T17:31:09.459Z,5.03
2018-07-24T17:33:50.205Z,3.50
2018-07-24T17:36:31.046Z,3.07
2018-07-24T17:39:12.395Z,4.67
2018-07-24T17:41:53.756Z,5.87
2018-07-24T17:44:34.718Z,3.70
2018-07-24T17:47:15.288Z,4.20
2018-07-24T17:49:56.508Z,3.37
2018-07-24T17:52:37.820Z,3.37
2018-07-24T17:55:18.429Z,3.13
2018-07-24T17:57:58.775Z,4.17
2018-07-24T18:00:39.242Z,6.47
2018-07-24T18:03:19.665Z,3.10
2018-07-24T18:06:00.554Z,3.27
2018-07-24T18:08:41.416Z,3.33
2018-07-24T18:11:22.228Z,3.40
2018-07-24T18:14:03.494Z,3.57
2018-07-24T18:16:44.326Z,3.03
2018-07-24T18:19:25.267Z,3.43
2018-07-24T18:22:06.187Z,3.20
2018-07-24T18:24:46.777Z,6.03
2018-07-24T18:27:27.620Z,6.07
2018-07-24T18:30:08.644Z,4.90
2018-07-24T18:32:49.399Z,3.83
2018-07-24T18:35:31.417Z,4.07
2018-07-24T18:38:11.990Z,3.90
2018-07-24T18:40:52.924Z,6.43
2018-07-24T18:43:33.594Z,5.03
2018-07-24T18:46:15.010Z,4.33
2018-07-24T18:48:55.546Z,4.43
2018-07-24T18:51:36.385Z,3.33
2018-07-24T18:54:17.939Z,3.80
2018-07-24T18:56:59.078Z,6.20
2018-07-24T18:59:39.993Z,4.90
2018-07-24T19:02:21.186Z,4.63
2018-07-24T19:05:02.199Z,4.50
2018-07-24T19:07:43.282Z,4.63
2018-07-24T19:10:24.619Z,4.00
2018-07-24T19:13:05.560Z,4.73
2018-07-24T19:15:46.108Z,4.63
2018-07-24T19:18:26.821Z,3.60
2018-07-24T19:21:08.168Z,4.90
2018-07-24T19:23:49.146Z,4.53
2018-07-24T19:26:29.639Z,5.47
2018-07-24T19:29:10.634Z,6.03
2018-07-24T19:31:52.096Z,4.10
2018-07-24T19:34:32.979Z,4.03
2018-07-24T19:37:18.644Z,4.00
2018-07-24T19:39:59.462Z,4.20
2018-07-24T19:42:40.333Z,4.40
2018-07-24T19:45:21.086Z,4.10
2018-07-24T19:48:03.044Z,5.60
2018-07-24T19:50:44.794Z,6.57
2018-07-24T19:53:25.734Z,6.50
2018-07-24T19:56:06.885Z,4.83
2018-07-24T19:58:47.649Z,9.73
2018-07-24T20:01:28.791Z,5.67
2018-07-24T20:04:10.159Z,6.67
2018-07-24T20:06:51.984Z,4.83
2018-07-24T20:09:32.902Z,6.13
2018-07-24T20:12:13.726Z,10.17
2018-07-24T20:14:54.977Z,4.80
2018-07-24T20:17:36.168Z,6.13
2018-07-24T20:20:17.409Z,6.07
2018-07-24T20:22:59.419Z,8.60
2018-07-24T20:25:41.318Z,8.77
2018-07-24T20:28:22.211Z,5.40
2018-07-24T20:31:02.853Z,6.27
2018-07-24T20:33:43.285Z,5.23
2018-07-24T20:36:25.291Z,4.50
2018-07-24T20:39:10.504Z,5.17
2018-07-24T20:41:51.579Z,4.87
2018-07-24T20:44:32.330Z,7.07
2018-07-24T20:47:12.802Z,6.33
2018-07-24T20:49:54.023Z,7.43
2018-07-24T20:52:35.433Z,6.83
2018-07-24T20:55:16.476Z,6.97
2018-07-24T20:57:57.317Z,10.53
2018-07-24T21:00:38.184Z,4.80
2018-07-24T21:03:19.519Z,9.03
2018-07-24T21:06:00.411Z,8.27
2018-07-24T21:08:41.316Z,6.87
2018-07-24T21:11:22.426Z,8.23
2018-07-24T21:14:03.913Z,6.67
2018-07-24T21:16:44.359Z,4.87
2018-07-24T21:19:25.045Z,5.47
2018-07-24T21:22:05.885Z,5.97
2018-07-24T21:24:46.657Z,6.30
2018-07-24T21:27:27.825Z,5.30
2018-07-24T21:30:09.227Z,6.17
2018-07-24T21:32:51.063Z,9.27
2018-07-24T21:35:32.277Z,5.30
2018-07-24T21:38:12.737Z,8.93
2018-07-24T21:40:53.540Z,6.27
2018-07-24T21:43:34.357Z,6.40
2018-07-24T21:46:15.148Z,6.13
2018-07-24T21:48:55.951Z,10.97
2018-07-24T21:51:36.541Z,6.73
2018-07-24T21:54:17.224Z,7.13
2018-07-24T21:56:58.059Z,6.13
2018-07-24T21:59:38.757Z,7.50
2018-07-24T22:02:20.032Z,7.70
2018-07-24T22:05:01.151Z,6.90
2018-07-24T22:07:42.052Z,8.87
2018-07-24T22:10:23.062Z,6.57
2018-07-24T22:13:04.145Z,12.30
2018-07-24T22:15:45.038Z,5.60
2018-07-24T22:18:25.986Z,8.37
2018-07-24T22:21:06.512Z,7.20
2018-07-24T22:23:47.141Z,5.83
2018-07-24T22:26:28.237Z,6.97
2018-07-24T22:29:09.099Z,7.47
2018-07-24T22:31:49.917Z,7.20
2018-07-24T22:34:30.355Z,7.30
2018-07-24T22:37:10.780Z,5.60
2018-07-24T22:39:51.689Z,5.33
2018-07-24T22:42:32.222Z,6.77
2018-07-24T22:45:13.707Z,6.40
2018-07-24T22:47:54.916Z,7.23
2018-07-24T22:50:36.013Z,6.23
2018-07-24T22:53:16.822Z,6.23
2018-07-24T22:55:57.320Z,8.33
2018-07-24T22:58:37.791Z,8.40
2018-07-24T23:01:18.685Z,7.97
2018-07-24T23:03:59.080Z,7.93
2018-07-24T23:06:39.482Z,7.83
2018-07-24T23:09:20.177Z,7.83
2018-07-24T23:12:01.259Z,6.63
2018-07-24T23:14:42.341Z,5.70
2018-07-24T23:17:22.711Z,8.57
2018-07-24T23:20:03.891Z,11.77
2018-07-24T23:22:44.793Z,6.93
2018-07-24T23:25:26.094Z,10.17
2018-07-24T23:28:07.781Z,6.57
2018-07-24T23:30:48.268Z,7.47
2018-07-24T23:33:28.713Z,8.50
2018-07-24T23:36:10.803Z,8.23
2018-07-24T23:38:51.711Z,7.87
2018-07-24T23:41:32.188Z,11.87
2018-07-24T23:44:13.096Z,11.87
2018-07-24T23:46:53.793Z,8.43
2018-07-24T23:49:34.416Z,8.57
2018-07-24T23:52:15.922Z,10.07
2018-07-24T23:54:56.840Z,11.33
2018-07-24T23:57:37.436Z,10.13
